Time;durP1;ratioP1;P1;durP2;ratioP2;P2;SDS_P1;SDS_P2;PMS_P1;PMS_P2;Temp;Humidity;BMP_temperature;BMP_pressure;BME280_temperature;BME280_humidity;BME280_pressure;Samples;Min_cycle;Max_cycle;Signal;HPM_P1;HPM_P2
2021/12/20 00:01:55;;;;;;;9.37;6.20;;;;;;;3.26;95.44;94201.06;5096292;28;20234;-82
2021/12/20 00:04:24;;;;;;;10.77;6.77;;;;;;;3.22;95.79;94218.59;5101790;28;20231;-83
2021/12/20 00:06:53;;;;;;;9.50;6.27;;;;;;;3.20;96.85;94217.19;5101881;28;20211;-80
2021/12/20 00:09:22;;;;;;;8.37;5.47;;;;;;;3.13;96.98;94214.56;5102466;28;20204;-80
2021/12/20 00:11:51;;;;;;;10.10;6.00;;;;;;;3.16;97.09;94223.66;5101315;28;20215;-80
2021/12/20 00:14:20;;;;;;;11.87;6.43;;;;;;;3.09;97.81;94220.25;5101321;28;20254;-81
2021/12/20 00:16:48;;;;;;;10.90;6.73;;;;;;;3.11;96.56;94208.81;5106380;28;20270;-81
2021/12/20 00:19:18;;;;;;;15.23;7.97;;;;;;;3.31;96.67;94229.53;5102119;28;20211;-83
2021/12/20 00:21:46;;;;;;;16.80;8.97;;;;;;;3.44;96.38;94238.13;5109699;28;20207;-81
2021/12/20 00:24:14;;;;;;;14.83;8.60;;;;;;;3.51;95.69;94232.25;5105621;27;20609;-81
2021/12/20 00:26:45;;;;;;;14.37;8.20;;;;;;;3.53;95.66;94227.72;5109919;27;20196;-81
2021/12/20 00:29:12;;;;;;;10.77;6.90;;;;;;;3.60;95.24;94234.53;5098248;28;20675;-82
2021/12/20 00:31:40;;;;;;;12.63;8.27;;;;;;;3.46;95.76;94211.50;5097052;28;20577;-86
2021/12/20 00:34:08;;;;;;;13.60;7.93;;;;;;;3.53;96.43;94215.69;5092073;28;20209;-86
2021/12/20 00:36:37;;;;;;;16.73;9.33;;;;;;;3.51;96.28;94209.16;5104242;28;20232;-86
2021/12/20 00:41:53;;;;;;;14.27;7.40;;;;;;;3.49;96.75;94193.13;5107169;28;20199;-82
2021/12/20 00:44:22;;;;;;;10.23;6.80;;;;;;;3.50;96.56;94204.97;5100347;28;20219;-80
2021/12/20 00:46:51;;;;;;;12.40;8.07;;;;;;;3.49;96.90;94178.53;5104668;28;20283;-81
2021/12/20 00:49:18;;;;;;;14.57;8.30;;;;;;;3.60;96.00;94195.19;5101521;28;20230;-80
2021/12/20 00:51:48;;;;;;;18.63;9.53;;;;;;;3.49;96.03;94182.88;5103199;28;20207;-81
2021/12/20 00:54:17;;;;;;;11.73;7.37;;;;;;;3.52;95.47;94185.06;5101156;28;20622;-79
2021/12/20 00:56:44;;;;;;;11.87;7.20;;;;;;;3.58;96.10;94181.75;5104443;28;20213;-80
2021/12/20 00:59:14;;;;;;;12.00;7.40;;;;;;;3.60;95.90;94177.22;5101996;28;20207;-81
2021/12/20 01:01:44;;;;;;;11.63;7.60;;;;;;;3.48;95.57;94171.78;5087135;28;20204;-80
2021/12/20 01:04:12;;;;;;;11.03;6.40;;;;;;;3.52;95.77;94167.09;5100560;28;20205;-80
2021/12/20 01:06:48;;;;;;;12.90;7.13;;;;;;;3.58;95.01;94187.66;5100015;28;20626;-80
2021/12/20 01:09:16;;;;;;;13.73;7.33;;;;;;;3.54;95.57;94196.72;5094407;28;20291;-80
2021/12/20 01:11:50;;;;;;;14.00;7.10;;;;;;;3.55;95.44;94193.16;5097373;28;20208;-80
2021/12/20 01:14:23;;;;;;;10.10;5.70;;;;;;;3.54;95.35;94196.72;5100549;28;20200;-80
2021/12/20 01:16:53;;;;;;;9.03;6.07;;;;;;;3.50;94.97;94176.72;5094820;28;20664;-80
2021/12/20 01:19:22;;;;;;;11.47;6.70;;;;;;;3.50;95.65;94203.22;5095919;28;20236;-80
2021/12/20 01:21:51;;;;;;;10.33;6.33;;;;;;;3.50;95.39;94202.41;5092808;28;20215;-82
2021/12/20 01:24:18;;;;;;;10.83;6.10;;;;;;;3.46;95.20;94194.31;5085876;28;20207;-80
2021/12/20 01:26:47;;;;;;;14.07;6.77;;;;;;;3.49;95.67;94211.13;5095891;28;20253;-79
2021/12/20 01:29:15;;;;;;;11.23;6.97;;;;;;;3.47;94.84;94205.34;5100601;28;20197;-80
2021/12/20 01:31:45;;;;;;;10.67;6.50;;;;;;;3.40;95.95;94206.13;5101211;28;20203;-80
2021/12/20 01:34:13;;;;;;;9.47;5.97;;;;;;;3.35;95.44;94193.03;5101934;27;20287;-80
2021/12/20 01:36:42;;;;;;;9.60;5.47;;;;;;;3.41;94.79;94202.56;5089709;28;20234;-80
2021/12/20 01:39:10;;;;;;;12.10;6.47;;;;;;;3.42;95.75;94205.91;5092664;28;20197;-80
2021/12/20 01:41:41;;;;;;;9.97;5.80;;;;;;;3.29;95.50;94193.00;5098053;27;20235;-80
2021/12/20 01:44:09;;;;;;;9.10;6.10;;;;;;;3.40;95.39;94205.31;5098350;28;20207;-80
2021/12/20 01:46:37;;;;;;;10.03;6.70;;;;;;;3.42;95.26;94198.22;5095091;28;20226;-81
2021/12/20 01:49:11;;;;;;;12.60;7.00;;;;;;;3.34;95.54;94190.66;5101353;28;20281;-82
2021/12/20 01:51:51;;;;;;;9.03;6.33;;;;;;;3.48;95.11;94206.94;5091253;28;20213;-81
2021/12/20 01:54:20;;;;;;;10.03;6.03;;;;;;;3.44;95.30;94211.66;5096499;28;20725;-80
2021/12/20 01:56:48;;;;;;;9.20;5.70;;;;;;;3.47;95.53;94207.91;5090661;28;20318;-80
2021/12/20 01:59:17;;;;;;;11.23;6.43;;;;;;;3.49;95.00;94201.66;5103416;28;20279;-80
2021/12/20 02:01:46;;;;;;;10.33;6.73;;;;;;;3.52;94.43;94208.19;5090340;28;20211;-80
2021/12/20 02:04:16;;;;;;;8.63;6.40;;;;;;;3.50;94.65;94199.84;5096662;28;20211;-80
2021/12/20 02:06:48;;;;;;;11.13;6.27;;;;;;;3.46;95.69;94208.91;5095701;28;20230;-80
2021/12/20 02:09:18;;;;;;;11.23;6.93;;;;;;;3.33;96.15;94214.72;5097525;28;20647;-80
2021/12/20 02:11:48;;;;;;;9.70;6.47;;;;;;;3.18;96.97;94201.16;5093271;28;20202;-80
2021/12/20 02:14:17;;;;;;;8.47;6.03;;;;;;;3.21;96.84;94196.47;5106827;28;20351;-81
2021/12/20 02:16:52;;;;;;;10.37;6.30;;;;;;;3.18;96.65;94188.31;5100038;28;20204;-80
2021/12/20 02:19:21;;;;;;;9.27;6.27;;;;;;;3.13;97.00;94194.03;5098829;28;20286;-80
2021/12/20 02:21:54;;;;;;;9.37;6.00;;;;;;;3.17;96.80;94200.38;5093427;28;20262;-81
2021/12/20 02:24:25;;;;;;;10.63;6.40;;;;;;;3.25;96.82;94189.19;5100340;28;20238;-81
2021/12/20 02:26:54;;;;;;;9.10;5.83;;;;;;;3.12;97.35;94189.84;5108532;28;20300;-82
2021/12/20 02:29:39;;;;;;;8.60;5.87;;;;;;;3.14;97.35;94195.63;5094150;28;20214;-87
2021/12/20 02:37:56;;;;;;;10.57;6.53;;;;;;;3.12;97.86;94194.19;5101541;28;20278;-86
2021/12/20 02:40:43;;;;;;;10.63;6.87;;;;;;;3.15;97.84;94197.19;5094067;28;20672;-86
2021/12/20 02:43:14;;;;;;;9.60;6.27;;;;;;;3.20;97.30;94197.44;5036801;28;20216;-86
2021/12/20 02:45:43;;;;;;;8.93;6.33;;;;;;;3.30;96.80;94209.97;5088874;28;20224;-87
2021/12/20 02:48:12;;;;;;;9.77;6.17;;;;;;;3.30;97.42;94210.75;5093146;28;20204;-85
2021/12/20 02:50:40;;;;;;;9.37;6.20;;;;;;;3.24;97.60;94200.44;5091481;28;20215;-86
2021/12/20 02:53:11;;;;;;;10.27;6.40;;;;;;;3.30;97.29;94213.31;5091683;28;20208;-85
2021/12/20 02:55:45;;;;;;;11.47;7.20;;;;;;;3.24;97.95;94208.91;5097179;28;20611;-85
2021/12/20 02:58:13;;;;;;;10.00;6.33;;;;;;;3.20;98.46;94200.00;5097395;28;20199;-86
2021/12/20 03:00:48;;;;;;;11.73;6.97;;;;;;;3.30;97.35;94203.06;5095152;28;20285;-86
2021/12/20 03:03:16;;;;;;;11.93;8.00;;;;;;;3.28;98.14;94204.22;5097882;28;20261;-87
2021/12/20 03:05:46;;;;;;;11.83;8.50;;;;;;;3.32;98.41;94210.56;5104740;28;20222;-87
2021/12/20 03:08:18;;;;;;;12.40;7.43;;;;;;;3.27;98.20;94192.34;5104742;28;20282;-86
2021/12/20 03:10:46;;;;;;;12.47;7.57;;;;;;;3.27;98.73;94202.63;5098899;28;20681;-86
2021/12/20 03:13:22;;;;;;;10.37;7.27;;;;;;;3.06;98.89;94177.75;5114538;28;20204;-84
2021/12/20 03:16:01;;;;;;;11.97;7.87;;;;;;;3.21;98.16;94204.16;5102758;28;20290;-84
2021/12/20 03:18:29;;;;;;;14.60;9.00;;;;;;;3.22;97.91;94192.13;5100937;28;20266;-84
2021/12/20 03:20:57;;;;;;;11.07;7.23;;;;;;;3.36;97.23;94202.31;5108617;28;20726;-83
2021/12/20 03:23:27;;;;;;;11.40;7.70;;;;;;;3.28;98.08;94186.25;5100458;28;20284;-83
2021/12/20 03:25:57;;;;;;;12.73;8.20;;;;;;;3.13;98.64;94195.78;5101317;28;20242;-87
2021/12/20 03:28:36;;;;;;;12.70;8.13;;;;;;;3.00;99.53;94175.91;5107667;28;20213;-86
2021/12/20 03:31:04;;;;;;;13.80;8.87;;;;;;;3.14;99.30;94194.81;5111268;28;20287;-86
2021/12/20 03:33:32;;;;;;;11.83;7.83;;;;;;;3.08;99.80;94190.41;5109672;28;20634;-86
2021/12/20 03:36:00;;;;;;;11.73;8.13;;;;;;;3.01;99.84;94204.94;5108906;28;20551;-86
2021/12/20 03:38:39;;;;;;;11.50;7.73;;;;;;;3.03;100.00;94208.91;5104992;28;20239;-86
2021/12/20 03:41:06;;;;;;;12.23;7.23;;;;;;;2.95;100.00;94197.97;5098682;28;20639;-87
2021/12/20 03:43:49;;;;;;;14.03;8.43;;;;;;;2.94;100.00;94212.59;5095051;28;20266;-88
2021/12/20 03:46:19;;;;;;;11.57;7.63;;;;;;;3.04;100.00;94200.25;5100528;28;20235;-86
2021/12/20 03:48:58;;;;;;;10.90;7.20;;;;;;;3.02;100.00;94209.91;5102493;28;20204;-87
2021/12/20 03:51:27;;;;;;;12.23;7.03;;;;;;;3.04;100.00;94196.88;5110403;28;20208;-89
2021/12/20 03:53:59;;;;;;;12.80;7.70;;;;;;;3.15;100.00;94204.09;5095395;28;20228;-88
2021/12/20 03:56:26;;;;;;;12.20;7.83;;;;;;;3.13;100.00;94206.06;5101400;28;20629;-89
2021/12/20 03:58:55;;;;;;;12.53;8.10;;;;;;;3.06;100.00;94213.69;5095505;28;20197;-87
2021/12/20 04:01:25;;;;;;;17.50;9.60;;;;;;;2.97;100.00;94193.47;5103650;28;20686;-89
2021/12/20 04:03:56;;;;;;;13.27;9.00;;;;;;;3.07;100.00;94214.47;5095911;28;20193;-85
2021/12/20 04:06:25;;;;;;;14.80;9.57;;;;;;;3.01;100.00;94215.22;5094640;28;20223;-86
2021/12/20 04:08:53;;;;;;;12.53;8.23;;;;;;;3.09;100.00;94215.88;5094745;28;20666;-83
2021/12/20 04:11:23;;;;;;;15.47;9.03;;;;;;;3.23;100.00;94225.28;5098830;28;20583;-71
2021/12/20 04:13:51;;;;;;;11.17;8.20;;;;;;;3.22;100.00;94221.16;5091179;28;20201;-71
2021/12/20 04:16:19;;;;;;;16.10;9.17;;;;;;;3.06;100.00;94223.94;5091351;28;20237;-71
2021/12/20 04:18:46;;;;;;;13.93;9.00;;;;;;;2.99;100.00;94227.44;5093612;28;20622;-72
2021/12/20 04:21:15;;;;;;;16.93;9.53;;;;;;;2.90;100.00;94233.66;5090138;28;20215;-72
2021/12/20 04:23:43;;;;;;;14.23;8.63;;;;;;;2.79;100.00;94234.94;5091661;28;20202;-72
2021/12/20 04:26:11;;;;;;;15.03;9.10;;;;;;;2.83;100.00;94241.28;5089767;28;20288;-71
2021/12/20 04:28:41;;;;;;;14.80;9.27;;;;;;;2.77;100.00;94242.78;5093819;28;20208;-71
2021/12/20 04:31:09;;;;;;;17.70;10.33;;;;;;;2.71;100.00;94232.47;5091070;28;20206;-71
2021/12/20 04:33:38;;;;;;;17.40;9.67;;;;;;;2.68;100.00;94235.41;5090036;28;20234;-72
2021/12/20 04:36:06;;;;;;;14.03;8.73;;;;;;;2.68;100.00;94235.41;5083634;28;20285;-72
2021/12/20 04:38:34;;;;;;;20.77;10.43;;;;;;;2.69;100.00;94234.41;5098645;28;20205;-72
2021/12/20 04:41:02;;;;;;;19.57;10.43;;;;;;;2.69;100.00;94226.72;5103878;28;20283;-74
2021/12/20 04:43:30;;;;;;;20.50;11.23;;;;;;;2.76;100.00;94248.13;5096627;28;20939;-72
2021/12/20 04:46:00;;;;;;;17.97;10.23;;;;;;;2.90;100.00;94249.06;5098559;28;20220;-71
2021/12/20 04:48:28;;;;;;;17.17;10.03;;;;;;;2.93;100.00;94243.56;5098556;28;20270;-71
2021/12/20 04:50:56;;;;;;;24.60;11.57;;;;;;;2.91;100.00;94245.53;5099368;28;20210;-71
2021/12/20 04:53:24;;;;;;;13.60;8.33;;;;;;;2.81;100.00;94246.59;5096793;28;20205;-71
2021/12/20 04:55:51;;;;;;;12.27;7.97;;;;;;;2.83;100.00;94254.91;5094167;28;20238;-71
2021/12/20 04:58:19;;;;;;;16.27;9.47;;;;;;;2.78;100.00;94251.28;5098071;28;20205;-71
2021/12/20 05:00:46;;;;;;;12.83;7.60;;;;;;;2.81;100.00;94267.13;5097693;28;20202;-71
2021/12/20 05:03:16;;;;;;;13.67;8.00;;;;;;;2.77;100.00;94255.63;5096917;28;20201;-71
2021/12/20 05:05:44;;;;;;;16.00;8.87;;;;;;;2.73;100.00;94258.75;5101506;28;20217;-71
2021/12/20 05:08:13;;;;;;;12.73;8.30;;;;;;;2.71;100.00;94266.59;5095750;28;20213;-71
2021/12/20 05:10:42;;;;;;;12.47;7.97;;;;;;;2.72;100.00;94267.41;5093525;27;20586;-72
2021/12/20 05:13:11;;;;;;;15.03;8.87;;;;;;;2.70;100.00;94277.84;5099164;28;20284;-70
2021/12/20 05:15:40;;;;;;;17.43;9.57;;;;;;;2.65;100.00;94253.72;5095722;28;20203;-71
2021/12/20 05:18:10;;;;;;;15.97;9.60;;;;;;;2.79;100.00;94276.78;5093374;28;20206;-70
2021/12/20 05:20:39;;;;;;;16.07;9.70;;;;;;;2.82;100.00;94286.69;5097222;28;20246;-70
2021/12/20 05:23:09;;;;;;;18.47;11.13;;;;;;;2.84;100.00;94281.34;5100288;28;20242;-72
2021/12/20 05:25:37;;;;;;;18.97;9.37;;;;;;;2.71;100.00;94266.59;5095808;28;20331;-71
2021/12/20 05:28:07;;;;;;;13.87;8.53;;;;;;;2.73;100.00;94274.13;5100128;28;20210;-70
2021/12/20 05:30:35;;;;;;;14.03;8.47;;;;;;;2.69;100.00;94286.50;5097005;28;20260;-70
2021/12/20 05:33:04;;;;;;;14.80;9.03;;;;;;;2.69;100.00;94280.56;5107149;28;20203;-71
2021/12/20 05:35:32;;;;;;;14.23;8.40;;;;;;;2.65;100.00;94287.84;5093490;28;20211;-71
2021/12/20 05:38:01;;;;;;;12.70;8.33;;;;;;;2.65;100.00;94292.19;5090604;28;20199;-71
2021/12/20 05:40:29;;;;;;;12.00;7.53;;;;;;;2.77;100.00;94299.22;5096326;28;20784;-72
2021/12/20 05:42:57;;;;;;;10.73;6.97;;;;;;;2.76;100.00;94284.03;5095629;28;20241;-72
2021/12/20 05:45:25;;;;;;;13.10;7.77;;;;;;;2.80;100.00;94282.69;5088466;28;20216;-71
2021/12/20 05:47:53;;;;;;;12.37;7.47;;;;;;;2.78;100.00;94288.00;5089249;28;20239;-73
2021/12/20 05:50:22;;;;;;;10.60;7.00;;;;;;;2.73;100.00;94271.56;5082924;28;20208;-73
2021/12/20 05:52:50;;;;;;;13.10;6.40;;;;;;;2.70;100.00;94275.28;5094756;28;20195;-71
2021/12/20 05:55:21;;;;;;;10.73;7.63;;;;;;;2.73;100.00;94279.25;5101764;28;20222;-71
2021/12/20 05:57:49;;;;;;;12.53;8.07;;;;;;;2.77;100.00;94288.19;5098156;28;20220;-70
2021/12/20 06:00:19;;;;;;;15.77;9.27;;;;;;;2.85;100.00;94299.16;5095850;28;20209;-70
2021/12/20 06:02:52;;;;;;;13.63;8.53;;;;;;;2.90;100.00;94306.31;5097569;28;20620;-77
2021/12/20 06:05:21;;;;;;;15.40;9.53;;;;;;;2.98;100.00;94310.53;5100352;28;20260;-70
2021/12/20 06:07:49;;;;;;;11.07;7.30;;;;;;;2.98;100.00;94298.50;5095952;28;20337;-69
2021/12/20 06:10:20;;;;;;;15.40;8.53;;;;;;;2.99;100.00;94307.00;5099969;28;20206;-70
2021/12/20 06:12:49;;;;;;;18.30;10.67;;;;;;;2.99;100.00;94312.94;5093947;28;20691;-70
2021/12/20 06:15:18;;;;;;;18.67;10.63;;;;;;;2.98;100.00;94306.19;5095074;28;20243;-71
2021/12/20 06:17:45;;;;;;;19.37;10.67;;;;;;;3.01;100.00;94305.81;5092535;28;20192;-70
2021/12/20 06:20:15;;;;;;;17.83;9.83;;;;;;;3.01;100.00;94303.25;5089618;28;20207;-70
2021/12/20 06:22:43;;;;;;;20.23;11.90;;;;;;;2.84;100.00;94307.81;5091089;28;20196;-71
2021/12/20 06:25:12;;;;;;;20.17;11.60;;;;;;;2.93;100.00;94317.97;5093301;28;20241;-70
2021/12/20 06:27:42;;;;;;;24.67;11.97;;;;;;;2.96;100.00;94320.19;5094044;28;20231;-70
2021/12/20 06:30:11;;;;;;;20.53;10.83;;;;;;;3.02;100.00;94311.75;5091496;28;20200;-70
2021/12/20 06:32:40;;;;;;;19.77;11.20;;;;;;;2.97;100.00;94317.44;5095018;28;20195;-70
2021/12/20 06:35:09;;;;;;;20.23;11.03;;;;;;;2.93;100.00;94321.34;5084369;28;20330;-70
2021/12/20 06:37:37;;;;;;;22.30;13.17;;;;;;;2.94;100.00;94317.81;5087478;28;20191;-70
2021/12/20 06:40:07;;;;;;;23.27;11.97;;;;;;;2.96;100.00;94318.41;5092711;28;21109;-70
2021/12/20 06:42:38;;;;;;;22.03;12.03;;;;;;;3.02;100.00;94324.59;5092314;28;20191;-71
2021/12/20 06:45:09;;;;;;;29.67;13.73;;;;;;;2.99;100.00;94322.38;5091489;28;20908;-72
2021/12/20 06:47:38;;;;;;;23.90;12.47;;;;;;;2.89;100.00;94325.22;5095393;28;20255;-71
2021/12/20 06:50:07;;;;;;;21.77;10.73;;;;;;;2.98;100.00;94331.84;5093386;28;20203;-70
2021/12/20 06:52:35;;;;;;;24.60;11.10;;;;;;;3.01;100.00;94328.13;5094032;28;20199;-70
2021/12/20 06:55:03;;;;;;;20.13;9.60;;;;;;;3.02;100.00;94325.41;5092170;28;20203;-72
2021/12/20 06:57:31;;;;;;;18.40;9.87;;;;;;;3.12;100.00;94318.19;5092387;28;20262;-72
2021/12/20 07:00:00;;;;;;;17.47;9.37;;;;;;;3.20;100.00;94325.00;5091371;28;20202;-71
2021/12/20 07:02:30;;;;;;;21.10;11.20;;;;;;;3.22;100.00;94328.97;5097008;28;20287;-73
2021/12/20 07:04:58;;;;;;;39.60;16.73;;;;;;;3.19;100.00;94331.09;5103916;28;20204;-72
2021/12/20 07:07:28;;;;;;;31.93;15.30;;;;;;;3.17;100.00;94333.88;5093751;28;20726;-71
2021/12/20 07:09:57;;;;;;;30.83;14.30;;;;;;;3.16;100.00;94336.59;5103454;28;20247;-71
2021/12/20 07:12:27;;;;;;;31.27;15.57;;;;;;;3.23;100.00;94338.25;5097123;28;20204;-70
2021/12/20 07:14:56;;;;;;;24.10;13.23;;;;;;;3.23;100.00;94333.13;5099245;28;20214;-71
2021/12/20 07:17:25;;;;;;;25.87;12.40;;;;;;;3.27;100.00;94325.84;5091296;28;20192;-70
2021/12/20 07:19:55;;;;;;;22.33;11.93;;;;;;;3.29;100.00;94327.25;5100927;28;20208;-71
2021/12/20 07:22:24;;;;;;;23.73;11.50;;;;;;;3.28;100.00;94323.13;5090604;28;20203;-71
2021/12/20 07:24:53;;;;;;;17.70;10.43;;;;;;;3.28;100.00;94330.03;5100222;28;20695;-71
2021/12/20 07:27:21;;;;;;;22.17;11.97;;;;;;;3.29;100.00;94347.03;5097105;28;20297;-71
2021/12/20 07:29:48;;;;;;;26.23;13.60;;;;;;;3.31;100.00;94335.59;5097846;28;20204;-71
2021/12/20 07:32:15;;;;;;;24.53;13.30;;;;;;;3.34;100.00;94344.72;5094254;28;20200;-71
2021/12/20 07:34:42;;;;;;;26.13;13.27;;;;;;;3.26;100.00;94337.91;5092983;28;20736;-71
2021/12/20 07:37:11;;;;;;;31.33;14.70;;;;;;;3.26;100.00;94329.41;5103626;28;20195;-77
2021/12/20 07:39:38;;;;;;;27.47;14.07;;;;;;;3.30;100.00;94336.56;5088684;28;20263;-81
2021/12/20 07:42:07;;;;;;;30.60;17.13;;;;;;;3.25;100.00;94348.34;5106090;28;20211;-77
2021/12/20 07:44:34;;;;;;;15.57;8.93;;;;;;;3.33;100.00;94346.47;5090638;28;20201;-79
2021/12/20 07:47:02;;;;;;;15.53;9.67;;;;;;;3.37;100.00;94352.06;5096653;28;20224;-79
2021/12/20 07:49:29;;;;;;;18.33;10.40;;;;;;;3.41;100.00;94341.22;5086079;28;20288;-80
2021/12/20 07:51:56;;;;;;;31.23;13.83;;;;;;;3.40;100.00;94357.63;5092705;28;20208;-81
2021/12/20 07:54:25;;;;;;;27.53;14.50;;;;;;;3.44;100.00;94335.72;5095815;28;20288;-80
2021/12/20 07:56:54;;;;;;;28.30;12.47;;;;;;;3.39;100.00;94344.94;5109877;28;20209;-80
2021/12/20 07:59:21;;;;;;;16.50;9.53;;;;;;;3.39;100.00;94362.94;5093475;28;20204;-81
2021/12/20 08:01:49;;;;;;;19.10;10.07;;;;;;;3.46;100.00;94350.97;5100577;28;20691;-80
2021/12/20 08:04:16;;;;;;;17.80;9.70;;;;;;;3.57;100.00;94354.81;5110253;28;20202;-81
2021/12/20 08:06:44;;;;;;;17.60;9.53;;;;;;;3.57;99.87;94370.22;5087424;28;20307;-80
2021/12/20 08:09:12;;;;;;;13.83;7.97;;;;;;;3.63;99.93;94372.06;5092093;28;20248;-81
2021/12/20 08:11:40;;;;;;;21.20;10.30;;;;;;;3.71;99.16;94374.53;5090200;28;20204;-79
2021/12/20 08:14:08;;;;;;;24.10;12.33;;;;;;;3.63;98.59;94362.59;5089099;28;20205;-81
2021/12/20 08:16:35;;;;;;;20.80;11.50;;;;;;;3.73;98.31;94375.13;5091107;28;20205;-81
2021/12/20 08:19:02;;;;;;;16.70;9.03;;;;;;;3.85;96.88;94376.25;5089235;28;20196;-79
2021/12/20 08:21:29;;;;;;;19.97;10.20;;;;;;;3.84;97.44;94383.16;5094288;28;20195;-80
2021/12/20 08:23:57;;;;;;;17.20;9.27;;;;;;;3.87;96.32;94393.06;5092114;28;20204;-81
2021/12/20 08:26:26;;;;;;;16.93;11.57;;;;;;;3.87;96.80;94385.34;5095180;28;20613;-79
2021/12/20 08:28:54;;;;;;;14.93;8.83;;;;;;;3.84;95.76;94378.00;5090096;28;20230;-82
2021/12/20 08:31:22;;;;;;;18.93;10.17;;;;;;;3.93;96.03;94391.53;5095989;28;20196;-83
2021/12/20 08:33:50;;;;;;;13.83;7.77;;;;;;;3.83;95.89;94380.78;5082021;28;20763;-81
2021/12/20 08:36:18;;;;;;;9.07;6.30;;;;;;;3.75;96.59;94386.03;5097205;28;20201;-81
2021/12/20 08:38:46;;;;;;;16.43;9.30;;;;;;;3.81;97.41;94390.44;5087113;28;20204;-80
2021/12/20 08:41:17;;;;;;;18.37;10.17;;;;;;;3.78;97.61;94390.81;5100440;28;20196;-81
2021/12/20 08:43:44;;;;;;;11.73;7.30;;;;;;;3.64;97.37;94369.31;5091153;28;20208;-80
2021/12/20 08:46:15;;;;;;;13.43;8.37;;;;;;;3.61;97.73;94384.31;5094607;28;20908;-81
2021/12/20 08:48:43;;;;;;;11.80;7.30;;;;;;;3.70;96.66;94393.47;5094326;28;20227;-82
2021/12/20 08:51:11;;;;;;;14.73;8.37;;;;;;;3.69;97.51;94397.03;5089147;28;20211;-81
2021/12/20 08:53:39;;;;;;;15.87;8.23;;;;;;;3.74;96.74;94389.56;5101743;28;20627;-82
2021/12/20 08:56:08;;;;;;;17.40;8.27;;;;;;;3.74;96.36;94392.16;5093335;28;20204;-81
2021/12/20 08:58:35;;;;;;;16.40;9.20;;;;;;;3.77;96.38;94392.59;5095119;28;20196;-81
2021/12/20 09:01:02;;;;;;;15.40;7.97;;;;;;;3.71;96.28;94382.22;5103025;28;20283;-81
2021/12/20 09:03:32;;;;;;;16.67;9.73;;;;;;;3.80;97.03;94391.41;5091308;28;20266;-81
2021/12/20 09:06:08;;;;;;;13.33;8.20;;;;;;;3.71;97.35;94383.03;5093814;28;20893;-82
2021/12/20 09:08:35;;;;;;;12.30;7.47;;;;;;;3.71;96.40;94385.59;5103710;28;20261;-82
2021/12/20 09:11:03;;;;;;;15.47;7.00;;;;;;;3.72;96.49;94388.97;5100827;28;20204;-81
2021/12/20 09:13:32;;;;;;;9.97;6.57;;;;;;;3.60;96.84;94380.16;5101143;28;20235;-81
2021/12/20 09:16:00;;;;;;;10.83;6.40;;;;;;;3.71;95.66;94377.91;5098855;28;20699;-81
2021/12/20 09:18:28;;;;;;;13.30;8.47;;;;;;;3.74;95.47;94374.97;5104626;28;20197;-81
2021/12/20 09:20:58;;;;;;;6.57;4.33;;;;;;;3.70;94.73;94378.06;5099257;28;20243;-81
2021/12/20 09:23:29;;;;;;;7.00;5.10;;;;;;;3.68;93.34;94367.19;5092302;28;20197;-81
2021/12/20 09:25:57;;;;;;;7.30;5.40;;;;;;;3.82;93.89;94369.69;5095648;28;20267;-81
2021/12/20 09:28:24;;;;;;;7.07;4.73;;;;;;;3.86;94.08;94376.06;5096243;28;20614;-81
2021/12/20 09:30:52;;;;;;;10.10;6.20;;;;;;;3.85;94.24;94379.59;5100033;28;20285;-81
2021/12/20 09:33:19;;;;;;;8.43;4.87;;;;;;;3.86;93.92;94377.84;5093455;28;20205;-81
2021/12/20 09:35:49;;;;;;;5.67;4.03;;;;;;;3.82;93.02;94372.25;5094739;28;20197;-81
2021/12/20 09:38:19;;;;;;;5.97;4.40;;;;;;;3.78;93.65;94371.03;5092170;28;20207;-81
2021/12/20 09:41:13;;;;;;;7.50;4.97;;;;;;;3.91;93.28;94378.88;5085494;28;20200;-77
2021/12/20 09:43:46;;;;;;;11.07;5.37;;;;;;;3.89;93.28;94382.63;5091647;28;20585;-81
2021/12/20 09:46:15;;;;;;;7.33;4.83;;;;;;;3.95;92.97;94374.16;5078739;28;20927;-74
2021/12/20 09:48:47;;;;;;;6.30;4.27;;;;;;;3.85;93.39;94371.91;5090229;28;20231;-74
2021/12/20 09:51:15;;;;;;;10.40;5.57;;;;;;;3.99;93.49;94378.75;5095442;28;20203;-76
2021/12/20 09:53:46;;;;;;;10.30;7.73;;;;;;;4.08;93.86;94365.75;5089445;28;20205;-76
2021/12/20 09:56:14;;;;;;;17.47;11.40;;;;;;;4.31;92.39;94369.72;5082126;28;20373;-73
2021/12/20 09:58:42;;;;;;;20.63;11.20;;;;;;;4.19;91.83;94371.19;5089419;28;20200;-76
2021/12/20 10:01:13;;;;;;;11.73;7.20;;;;;;;4.18;91.88;94369.63;5089655;28;20204;-78
2021/12/20 10:03:44;;;;;;;8.40;5.20;;;;;;;4.12;91.12;94356.69;5089784;28;20197;-78
2021/12/20 10:06:12;;;;;;;9.63;6.53;;;;;;;4.24;92.44;94370.66;5089722;28;20216;-78
2021/12/20 10:08:49;;;;;;;15.30;9.60;;;;;;;4.17;92.48;94375.72;5090119;28;20281;-78
2021/12/20 10:11:22;;;;;;;16.33;10.20;;;;;;;4.20;91.34;94362.50;5083456;28;20200;-78
2021/12/20 10:13:50;;;;;;;15.43;8.33;;;;;;;4.13;91.47;94358.31;5083312;28;20205;-78
2021/12/20 10:16:20;;;;;;;11.57;6.63;;;;;;;4.11;93.23;94375.66;5088749;28;20662;-76
2021/12/20 10:18:48;;;;;;;12.73;7.17;;;;;;;4.20;92.19;94361.72;5089494;28;20199;-75
2021/12/20 10:21:18;;;;;;;8.00;5.90;;;;;;;4.30;92.42;94357.81;5081231;28;20205;-75
2021/12/20 10:23:48;;;;;;;10.17;6.20;;;;;;;4.35;91.93;94370.13;5090122;28;20629;-75
2021/12/20 10:26:19;;;;;;;9.37;5.27;;;;;;;4.42;91.63;94368.41;5089389;28;20298;-75
2021/12/20 10:28:51;;;;;;;9.40;5.70;;;;;;;4.36;92.73;94369.13;5089647;28;20267;-75
2021/12/20 10:31:22;;;;;;;11.60;6.53;;;;;;;4.36;93.59;94371.72;5083890;28;20270;-75
2021/12/20 10:33:54;;;;;;;9.93;6.00;;;;;;;4.32;93.73;94355.88;5084085;28;20372;-75
2021/12/20 10:36:21;;;;;;;11.03;6.77;;;;;;;4.29;95.38;94369.13;5089161;28;20726;-75
2021/12/20 10:38:56;;;;;;;11.63;6.50;;;;;;;4.00;96.58;94362.34;5083119;28;20606;-75
2021/12/20 10:41:33;;;;;;;9.43;5.77;;;;;;;3.94;97.92;94370.00;5089759;28;20204;-75
2021/12/20 10:44:14;;;;;;;11.87;7.00;;;;;;;3.93;98.70;94368.41;5088235;28;20223;-75
2021/12/20 10:46:47;;;;;;;11.87;7.73;;;;;;;3.73;100.00;94375.13;5087312;28;20635;-77
2021/12/20 10:49:15;;;;;;;8.43;5.90;;;;;;;3.65;100.00;94362.41;5092840;28;20704;-78
2021/12/20 10:51:45;;;;;;;11.33;6.70;;;;;;;3.63;100.00;94370.31;5092233;28;20204;-78
2021/12/20 10:54:17;;;;;;;9.70;6.50;;;;;;;3.68;100.00;94362.84;5097762;28;20210;-78
2021/12/20 10:56:51;;;;;;;8.30;6.00;;;;;;;3.68;100.00;94388.53;5093169;28;20204;-77
2021/12/20 10:59:22;;;;;;;12.47;6.93;;;;;;;3.64;100.00;94368.50;5089296;28;20602;-77
2021/12/20 11:04:41;;;;;;;8.73;5.37;;;;;;;3.77;99.18;94379.72;5091579;28;20339;-77
2021/12/20 11:10:01;;;;;;;11.97;5.87;;;;;;;3.68;100.00;94382.59;5086142;28;20650;-77
2021/12/20 11:12:32;;;;;;;12.60;7.33;;;;;;;3.78;100.00;94373.59;5092706;28;20200;-77
2021/12/20 11:15:04;;;;;;;5.10;3.77;;;;;;;3.70;99.26;94360.88;5089465;28;20261;-78
2021/12/20 11:17:33;;;;;;;11.77;6.43;;;;;;;3.66;100.00;94357.09;5091925;28;20294;-78
2021/12/20 11:20:00;;;;;;;6.33;4.67;;;;;;;3.66;99.41;94366.56;5088680;28;20208;-78
2021/12/20 11:22:30;;;;;;;7.27;4.50;;;;;;;3.58;98.98;94362.31;5089688;28;20228;-79
2021/12/20 11:25:00;;;;;;;8.77;4.20;;;;;;;3.50;99.32;94352.19;5094130;28;20642;-78
2021/12/20 11:27:30;;;;;;;6.77;4.37;;;;;;;3.47;100.00;94354.31;5092969;28;20332;-76
2021/12/20 11:29:58;;;;;;;6.43;4.10;;;;;;;3.58;100.00;94338.44;5090904;28;20200;-77
2021/12/20 11:32:28;;;;;;;10.93;5.60;;;;;;;3.46;100.00;94337.31;5090762;28;20211;-77
2021/12/20 11:34:56;;;;;;;6.33;4.27;;;;;;;3.47;99.83;94347.41;5091418;28;20217;-76
2021/12/20 11:37:25;;;;;;;4.83;3.70;;;;;;;3.36;100.00;94335.03;5096114;28;20293;-75
2021/12/20 11:39:54;;;;;;;7.07;4.63;;;;;;;3.30;100.00;94341.69;5091379;28;20207;-76
2021/12/20 11:42:22;;;;;;;9.77;6.23;;;;;;;3.40;100.00;94349.13;5090894;28;20243;-76
2021/12/20 11:44:57;;;;;;;10.37;6.03;;;;;;;3.31;100.00;94340.72;5091252;28;20268;-76
2021/12/20 11:47:32;;;;;;;10.60;6.90;;;;;;;3.26;100.00;94357.66;5093008;28;20248;-77
2021/12/20 11:50:01;;;;;;;13.57;7.53;;;;;;;3.22;100.00;94348.72;5091633;28;20200;-75
2021/12/20 11:52:33;;;;;;;16.27;7.27;;;;;;;3.36;100.00;94363.28;5090548;28;20217;-75
2021/12/20 11:55:14;;;;;;;11.23;6.67;;;;;;;3.32;100.00;94378.25;5092234;28;20663;-75